createdAt,value
2022-08-30T00:01:32.249Z,14.90
2022-08-30T00:04:07.261Z,14.90
2022-08-30T00:06:38.864Z,9.50
2022-08-30T00:09:10.557Z,11.30
2022-08-30T00:11:44.769Z,12.70
2022-08-30T00:14:16.294Z,11.10
2022-08-30T00:19:18.269Z,13.30
2022-08-30T00:21:49.877Z,10.50
2022-08-30T00:24:21.431Z,12.90
2022-08-30T00:26:53.681Z,10.30
2022-08-30T00:29:28.108Z,12.60
2022-08-30T00:31:59.759Z,11.00
2022-08-30T00:37:02.289Z,12.40
2022-08-30T00:39:35.009Z,12.60
2022-08-30T00:42:06.899Z,11.60
2022-08-30T00:44:38.636Z,11.50
2022-08-30T00:47:10.917Z,16.70
2022-08-30T00:49:46.504Z,10.40
2022-08-30T00:52:20.001Z,12.70
2022-08-30T00:54:53.748Z,15.30
2022-08-30T00:57:25.255Z,11.80
2022-08-30T01:02:46.215Z,19.80
2022-08-30T01:05:21.276Z,10.20
2022-08-30T01:07:52.749Z,12.10
2022-08-30T01:12:54.992Z,12.40
2022-08-30T01:15:26.921Z,11.40
2022-08-30T01:17:59.414Z,20.60
2022-08-30T01:20:38.931Z,14.60
2022-08-30T01:23:14.623Z,10.00
2022-08-30T01:25:49.023Z,12.70
2022-08-30T01:28:24.029Z,9.40
2022-08-30T01:30:55.779Z,10.70
2022-08-30T01:33:27.325Z,13.20
2022-08-30T01:38:33.961Z,12.70
2022-08-30T01:41:12.478Z,18.40
2022-08-30T01:43:44.572Z,9.60
2022-08-30T01:46:27.489Z,12.20
2022-08-30T01:48:59.921Z,17.20
2022-08-30T01:51:32.331Z,10.10
2022-08-30T01:54:04.808Z,14.10
2022-08-30T01:56:36.808Z,10.10
2022-08-30T01:59:09.966Z,11.80
2022-08-30T02:01:42.430Z,11.60
2022-08-30T02:04:15.723Z,10.30
2022-08-30T02:06:47.820Z,14.50
2022-08-30T02:09:19.443Z,11.90
2022-08-30T02:11:51.452Z,12.50
2022-08-30T02:14:22.982Z,9.90
2022-08-30T02:19:24.586Z,13.90
2022-08-30T02:21:59.107Z,14.60
2022-08-30T02:24:30.903Z,13.20
2022-08-30T02:27:05.281Z,12.00
2022-08-30T02:29:36.915Z,17.30
2022-08-30T02:32:08.934Z,12.60
2022-08-30T02:34:42.827Z,12.50
2022-08-30T02:39:44.489Z,11.40
2022-08-30T02:42:17.678Z,11.70
2022-08-30T02:44:49.147Z,12.60
2022-08-30T02:49:50.730Z,13.40
2022-08-30T02:54:59.739Z,11.30
2022-08-30T02:57:31.315Z,11.30
2022-08-30T03:00:03.352Z,9.80
2022-08-30T03:02:36.233Z,10.30
2022-08-30T03:05:15.665Z,14.40
2022-08-30T03:07:47.683Z,8.50
2022-08-30T03:10:19.643Z,13.00
2022-08-30T03:12:59.171Z,10.00
2022-08-30T03:15:31.105Z,11.60
2022-08-30T03:20:32.635Z,10.00
2022-08-30T03:25:34.791Z,12.10
2022-08-30T03:28:06.502Z,12.80
2022-08-30T03:30:38.516Z,12.10
2022-08-30T03:33:10.015Z,10.30
2022-08-30T03:35:42.997Z,9.60
2022-08-30T03:38:14.640Z,11.40
2022-08-30T03:40:46.210Z,13.30
2022-08-30T03:43:18.426Z,8.70
2022-08-30T03:45:52.658Z,8.10
2022-08-30T03:48:24.147Z,8.30
2022-08-30T03:50:55.858Z,9.90
2022-08-30T03:53:27.473Z,11.70
2022-08-30T03:58:30.346Z,9.70
2022-08-30T04:03:32.105Z,13.10
2022-08-30T04:06:04.217Z,13.60
2022-08-30T04:08:37.088Z,12.10
2022-08-30T04:13:38.923Z,9.80
2022-08-30T04:18:40.859Z,8.60
2022-08-30T04:23:46.861Z,9.90
2022-08-30T04:26:18.420Z,9.90
2022-08-30T04:28:49.959Z,12.80
2022-08-30T04:31:23.262Z,11.30
2022-08-30T04:33:54.943Z,11.90
2022-08-30T04:36:31.843Z,15.00
2022-08-30T04:39:03.365Z,8.80
2022-08-30T04:41:37.021Z,13.60
2022-08-30T04:44:08.743Z,7.20
2022-08-30T04:46:45.581Z,8.80
2022-08-30T04:49:17.626Z,11.30
2022-08-30T04:51:49.231Z,8.70
2022-08-30T04:54:20.814Z,9.80
2022-08-30T04:56:52.379Z,11.40
2022-08-30T04:59:23.916Z,11.40
2022-08-30T05:01:55.581Z,9.60
2022-08-30T05:04:27.349Z,11.40
2022-08-30T05:06:58.944Z,11.10
2022-08-30T05:09:31.688Z,9.60
2022-08-30T05:12:06.002Z,10.40
2022-08-30T05:14:37.469Z,10.20
2022-08-30T05:17:09.071Z,9.40
2022-08-30T05:19:40.627Z,9.90
2022-08-30T05:22:12.533Z,12.30
2022-08-30T05:24:44.620Z,9.00
2022-08-30T05:27:16.064Z,10.20
2022-08-30T05:29:47.782Z,11.10
2022-08-30T05:32:19.740Z,9.80
2022-08-30T05:34:52.502Z,9.00
2022-08-30T05:37:24.026Z,11.70
2022-08-30T05:39:56.613Z,7.40
2022-08-30T05:42:28.490Z,7.30
2022-08-30T05:45:00.429Z,11.40
2022-08-30T05:47:32.244Z,12.10
2022-08-30T05:50:04.590Z,7.90
2022-08-30T05:52:37.361Z,10.20
2022-08-30T05:55:12.801Z,8.30
2022-08-30T05:57:44.905Z,7.80
2022-08-30T06:00:21.098Z,11.00
2022-08-30T06:02:55.839Z,11.60
2022-08-30T06:05:27.683Z,8.80
2022-08-30T06:07:59.390Z,11.60
2022-08-30T06:10:32.156Z,10.70
2022-08-30T06:13:03.959Z,10.90
2022-08-30T06:15:35.627Z,9.50
2022-08-30T06:18:10.319Z,9.90
2022-08-30T06:20:44.388Z,9.80
2022-08-30T06:23:17.686Z,9.00
2022-08-30T06:25:49.804Z,10.00
2022-08-30T06:28:22.308Z,8.80
2022-08-30T06:30:54.220Z,10.10
2022-08-30T06:33:26.139Z,12.10
2022-08-30T06:36:05.712Z,10.20
2022-08-30T06:38:38.654Z,7.90
2022-08-30T06:41:13.023Z,10.10
2022-08-30T06:43:48.921Z,10.30
2022-08-30T06:46:24.767Z,11.40
2022-08-30T06:48:57.769Z,9.70
2022-08-30T06:51:35.571Z,13.30
2022-08-30T06:54:09.236Z,12.00
2022-08-30T06:56:57.806Z,10.40
2022-08-30T06:59:33.897Z,11.70
2022-08-30T07:02:06.293Z,11.40
2022-08-30T07:04:38.746Z,10.70
2022-08-30T07:07:12.856Z,11.20
2022-08-30T07:09:44.623Z,12.20
2022-08-30T07:12:17.220Z,11.20
2022-08-30T07:14:50.804Z,11.20
2022-08-30T07:17:51.779Z,9.90
2022-08-30T07:20:23.826Z,13.90
2022-08-30T07:22:55.860Z,11.90
2022-08-30T07:25:39.272Z,12.00
2022-08-30T07:28:15.552Z,11.30
2022-08-30T07:30:47.152Z,15.50
2022-08-30T07:33:19.243Z,11.10
2022-08-30T07:35:51.353Z,12.60
2022-08-30T07:38:22.851Z,11.00
2022-08-30T07:40:54.423Z,12.00
2022-08-30T07:43:25.970Z,11.60
2022-08-30T07:46:01.284Z,9.80
2022-08-30T07:48:32.881Z,19.80
2022-08-30T07:51:10.077Z,13.30
2022-08-30T07:53:41.610Z,10.30
2022-08-30T07:56:13.501Z,10.50
2022-08-30T07:58:45.346Z,12.60
2022-08-30T08:01:21.692Z,12.10
2022-08-30T08:03:53.504Z,10.90
2022-08-30T08:06:27.644Z,12.70
2022-08-30T08:09:04.666Z,11.90
2022-08-30T08:11:37.466Z,11.50
2022-08-30T08:14:09.839Z,9.30
2022-08-30T08:16:45.229Z,10.90
2022-08-30T08:19:17.512Z,11.10
2022-08-30T08:21:55.694Z,12.50
2022-08-30T08:24:37.308Z,11.60
2022-08-30T08:27:08.958Z,10.30
2022-08-30T08:29:40.472Z,9.00
2022-08-30T08:32:11.992Z,10.90
2022-08-30T08:34:43.583Z,15.90
2022-08-30T08:37:16.420Z,10.10
2022-08-30T08:39:52.698Z,11.30
2022-08-30T08:42:33.268Z,8.90
2022-08-30T08:45:15.769Z,11.90
2022-08-30T08:47:57.182Z,11.70
2022-08-30T08:51:04.522Z,8.80
2022-08-30T08:53:46.517Z,9.80
2022-08-30T08:56:24.084Z,10.80
2022-08-30T08:58:57.786Z,10.70
2022-08-30T09:01:31.299Z,9.10
2022-08-30T09:04:10.230Z,10.20
2022-08-30T09:06:54.057Z,9.60
2022-08-30T09:09:30.442Z,8.90
2022-08-30T09:12:02.561Z,8.90
2022-08-30T09:14:39.131Z,8.30
2022-08-30T09:17:23.063Z,11.50
2022-08-30T09:20:02.608Z,7.00
2022-08-30T09:22:39.807Z,11.10
2022-08-30T09:25:23.613Z,7.40
2022-08-30T09:28:08.825Z,8.70
2022-08-30T09:30:58.254Z,7.40
2022-08-30T09:33:29.997Z,10.10
2022-08-30T09:36:15.243Z,7.80
2022-08-30T09:38:46.793Z,8.90
2022-08-30T09:41:38.293Z,7.60
2022-08-30T09:44:15.586Z,7.40
2022-08-30T09:46:52.939Z,10.30
2022-08-30T09:49:40.974Z,6.90
2022-08-30T09:52:18.486Z,8.10
2022-08-30T09:55:08.851Z,9.00
2022-08-30T09:57:53.356Z,9.50
2022-08-30T10:00:29.042Z,7.90
2022-08-30T10:06:24.792Z,8.40
2022-08-30T10:09:12.679Z,8.00
2022-08-30T10:11:53.198Z,7.30
2022-08-30T10:14:52.594Z,9.50
2022-08-30T10:17:41.719Z,6.80
2022-08-30T10:20:22.306Z,7.20
2022-08-30T10:23:01.345Z,7.10
2022-08-30T10:25:37.051Z,10.90
2022-08-30T10:28:14.651Z,9.40
2022-08-30T10:30:50.474Z,6.40
2022-08-30T10:33:27.313Z,5.80
2022-08-30T10:38:59.723Z,9.40
2022-08-30T10:41:40.309Z,6.00
2022-08-30T10:44:19.900Z,6.70
2022-08-30T10:47:03.327Z,5.80
2022-08-30T10:49:40.768Z,5.80
2022-08-30T10:52:30.292Z,6.20
2022-08-30T10:55:06.867Z,5.50
2022-08-30T10:57:39.236Z,5.80
2022-08-30T11:00:24.990Z,5.30
2022-08-30T11:03:24.095Z,5.70
2022-08-30T11:06:24.289Z,8.30
2022-08-30T11:11:53.700Z,6.50
2022-08-30T11:14:26.148Z,7.20
2022-08-30T11:17:01.122Z,5.50
2022-08-30T11:19:41.843Z,7.90
2022-08-30T11:22:22.617Z,6.80
2022-08-30T11:25:11.482Z,7.70
2022-08-30T11:27:47.590Z,5.20
2022-08-30T11:31:04.332Z,7.50
2022-08-30T11:33:57.076Z,7.60
2022-08-30T11:37:09.713Z,5.60
2022-08-30T11:40:01.916Z,6.80
2022-08-30T11:45:52.371Z,6.40
2022-08-30T11:48:55.310Z,9.40
2022-08-30T11:52:27.516Z,8.10
2022-08-30T11:57:49.905Z,5.70
2022-08-30T12:00:35.072Z,6.70
2022-08-30T12:03:26.447Z,6.80
2022-08-30T12:06:04.100Z,5.30
2022-08-30T12:09:02.772Z,4.60
2022-08-30T12:12:05.581Z,5.40
2022-08-30T12:14:49.540Z,7.80
2022-08-30T12:18:15.681Z,5.90
2022-08-30T12:20:50.346Z,7.20
2022-08-30T12:23:38.278Z,6.00
2022-08-30T12:26:29.360Z,6.00
2022-08-30T12:29:20.386Z,6.00
2022-08-30T12:31:55.844Z,3.40
2022-08-30T12:34:34.132Z,4.80
2022-08-30T12:37:08.445Z,4.90
2022-08-30T12:39:42.186Z,6.20
2022-08-30T12:42:19.013Z,6.80
2022-08-30T12:44:52.666Z,4.50
2022-08-30T12:47:28.111Z,7.60
2022-08-30T12:50:00.585Z,4.40
2022-08-30T12:52:39.930Z,6.50
2022-08-30T12:55:19.369Z,5.50
2022-08-30T12:58:02.266Z,6.00
2022-08-30T13:00:36.150Z,6.40
2022-08-30T13:03:24.602Z,7.80
2022-08-30T13:05:57.598Z,8.50
2022-08-30T13:08:35.187Z,8.40
2022-08-30T13:11:10.118Z,6.00
2022-08-30T13:13:52.225Z,6.40
2022-08-30T13:16:29.486Z,6.40
2022-08-30T13:19:27.599Z,7.30
2022-08-30T13:22:01.062Z,5.70
2022-08-30T13:24:32.977Z,7.80
2022-08-30T13:27:13.328Z,5.80
2022-08-30T13:41:14.376Z,6.50
2022-08-30T14:21:57.767Z,5.80
2022-08-30T14:24:55.421Z,6.40
2022-08-30T14:27:50.733Z,7.40
2022-08-30T14:30:39.772Z,7.30
2022-08-30T14:33:21.924Z,7.10
2022-08-30T14:36:15.767Z,6.50
2022-08-30T14:38:56.876Z,11.40
2022-08-30T14:41:30.959Z,7.00
2022-08-30T14:44:04.523Z,6.50
2022-08-30T14:46:36.334Z,6.70
2022-08-30T14:49:10.282Z,6.30
2022-08-30T14:51:46.151Z,6.70
2022-08-30T14:54:19.240Z,5.00
2022-08-30T14:56:51.133Z,6.70
2022-08-30T14:59:23.785Z,5.80
2022-08-30T15:01:55.669Z,5.00
2022-08-30T15:04:27.871Z,5.90
2022-08-30T15:07:01.221Z,7.00
2022-08-30T15:09:34.521Z,6.40
2022-08-30T15:12:08.776Z,6.30
2022-08-30T15:14:40.706Z,5.80
2022-08-30T15:17:13.023Z,6.30
2022-08-30T15:19:44.695Z,6.80
2022-08-30T15:22:16.375Z,6.80
2022-08-30T15:24:48.960Z,6.00
2022-08-30T15:27:26.263Z,7.30
2022-08-30T15:30:00.339Z,7.10
2022-08-30T15:32:32.131Z,8.60
2022-08-30T15:35:09.563Z,7.50
2022-08-30T15:37:41.145Z,7.00
2022-08-30T15:40:14.840Z,5.60
2022-08-30T15:42:47.212Z,7.10
2022-08-30T15:45:19.773Z,6.50
2022-08-30T15:47:51.349Z,6.40
2022-08-30T15:50:22.941Z,6.20
2022-08-30T15:52:54.969Z,6.00
2022-08-30T15:55:27.133Z,6.80
2022-08-30T15:57:58.850Z,7.40
2022-08-30T16:00:30.737Z,9.30
2022-08-30T16:03:03.520Z,7.50
2022-08-30T16:05:35.651Z,8.10
2022-08-30T16:08:07.461Z,12.50
2022-08-30T16:10:39.750Z,5.80
2022-08-30T16:13:14.799Z,7.70
2022-08-30T16:15:49.098Z,7.10
2022-08-30T16:18:20.689Z,6.90
2022-08-30T16:21:02.117Z,7.40
2022-08-30T16:23:38.043Z,6.60
2022-08-30T16:26:10.191Z,6.00
2022-08-30T16:28:56.018Z,7.80
2022-08-30T16:31:45.052Z,7.60
2022-08-30T16:34:21.204Z,7.10
2022-08-30T16:36:52.840Z,9.10
2022-08-30T16:39:25.095Z,10.50
2022-08-30T16:41:56.730Z,8.20
2022-08-30T16:44:29.802Z,9.10
2022-08-30T16:47:01.672Z,7.80
2022-08-30T16:49:33.352Z,7.80
2022-08-30T16:52:05.883Z,9.30
2022-08-30T16:54:37.450Z,9.10
2022-08-30T16:57:09.365Z,8.10
2022-08-30T16:59:41.104Z,7.80
2022-08-30T17:02:12.854Z,6.50
2022-08-30T17:04:44.568Z,8.00
2022-08-30T17:07:22.308Z,9.00
2022-08-30T17:09:54.221Z,8.30
2022-08-30T17:12:29.230Z,8.00
2022-08-30T17:15:03.069Z,11.10
2022-08-30T17:17:37.505Z,7.60
2022-08-30T17:20:15.973Z,8.90
2022-08-30T17:22:47.572Z,7.80
2022-08-30T17:25:20.414Z,8.00
2022-08-30T17:27:54.534Z,10.20
2022-08-30T17:30:26.073Z,7.40
2022-08-30T17:32:57.683Z,8.50
2022-08-30T17:35:29.409Z,9.00
2022-08-30T17:38:01.208Z,9.00
2022-08-30T17:40:33.396Z,8.90
2022-08-30T17:43:05.217Z,8.50
2022-08-30T17:45:40.467Z,9.00
2022-08-30T17:48:11.989Z,8.60
2022-08-30T17:50:43.724Z,8.20
2022-08-30T17:53:15.690Z,12.20
2022-08-30T17:55:53.383Z,10.40
2022-08-30T17:58:26.506Z,11.10
2022-08-30T18:01:11.715Z,8.50
2022-08-30T18:03:45.382Z,8.00
2022-08-30T18:06:17.465Z,8.70
2022-08-30T18:08:49.586Z,7.10
2022-08-30T18:11:23.500Z,9.10
2022-08-30T18:13:55.415Z,8.30
2022-08-30T18:16:27.563Z,9.30
2022-08-30T18:18:59.866Z,10.30
2022-08-30T18:21:31.846Z,8.70
2022-08-30T18:24:04.877Z,10.50
2022-08-30T18:26:37.573Z,10.10
2022-08-30T18:29:26.367Z,10.20
2022-08-30T18:32:03.732Z,11.80
2022-08-30T18:34:35.780Z,12.70
2022-08-30T18:37:11.292Z,8.90
2022-08-30T18:39:43.929Z,7.50
2022-08-30T18:42:15.887Z,12.50
2022-08-30T18:44:47.599Z,11.40
2022-08-30T18:47:32.141Z,10.10
2022-08-30T18:50:05.397Z,8.70
2022-08-30T18:52:37.529Z,9.20
2022-08-30T18:55:12.684Z,10.50
2022-08-30T18:57:44.675Z,11.40
2022-08-30T19:00:18.006Z,8.10
2022-08-30T19:02:51.096Z,11.20
2022-08-30T19:05:23.820Z,9.20
2022-08-30T19:07:56.013Z,14.40
2022-08-30T19:10:29.261Z,13.00
2022-08-30T19:13:02.943Z,11.80
2022-08-30T19:15:36.424Z,11.70
2022-08-30T19:18:17.375Z,11.70
2022-08-30T19:20:50.757Z,11.20
2022-08-30T19:23:25.634Z,11.40
2022-08-30T19:25:57.706Z,11.70
2022-08-30T19:28:30.488Z,12.60
2022-08-30T19:31:02.219Z,10.10
2022-08-30T19:33:36.960Z,11.70
2022-08-30T19:36:10.777Z,15.20
2022-08-30T19:38:44.445Z,10.30
2022-08-30T19:41:19.095Z,12.50
2022-08-30T19:43:50.747Z,12.30
2022-08-30T19:46:22.390Z,13.50
2022-08-30T19:48:54.103Z,12.00
2022-08-30T19:51:25.900Z,11.70
2022-08-30T19:54:00.910Z,14.40
2022-08-30T19:56:32.728Z,13.50
2022-08-30T19:59:04.628Z,13.80
2022-08-30T20:01:37.303Z,13.80
2022-08-30T20:04:11.089Z,14.80
2022-08-30T20:06:44.805Z,12.50
2022-08-30T20:09:16.518Z,14.70
2022-08-30T20:11:49.388Z,18.20
2022-08-30T20:14:28.621Z,11.70
2022-08-30T20:17:02.341Z,12.40
2022-08-30T20:19:34.485Z,13.50
2022-08-30T20:22:08.350Z,12.90
2022-08-30T20:24:43.767Z,12.80
2022-08-30T20:27:16.108Z,13.90
2022-08-30T20:29:48.139Z,16.50
2022-08-30T20:32:19.924Z,12.70
2022-08-30T20:34:53.199Z,15.70
2022-08-30T20:37:25.098Z,11.90
2022-08-30T20:40:00.273Z,19.50
2022-08-30T20:42:36.894Z,13.10
2022-08-30T20:45:09.865Z,14.40
2022-08-30T20:47:41.781Z,17.20
2022-08-30T20:50:16.117Z,11.80
2022-08-30T20:52:48.417Z,13.80
2022-08-30T20:55:20.028Z,17.00
2022-08-30T20:57:51.698Z,15.80
2022-08-30T21:00:26.553Z,13.00
2022-08-30T21:02:58.321Z,17.40
2022-08-30T21:05:30.555Z,11.70
2022-08-30T21:08:02.121Z,19.80
2022-08-30T21:10:41.495Z,12.50
2022-08-30T21:13:13.086Z,14.50
2022-08-30T21:15:46.191Z,13.70
2022-08-30T21:18:18.109Z,14.80
2022-08-30T21:20:49.852Z,16.80
2022-08-30T21:23:21.442Z,14.80
2022-08-30T21:25:53.106Z,14.50
2022-08-30T21:28:25.620Z,11.20
2022-08-30T21:31:07.820Z,12.40
2022-08-30T21:33:41.926Z,12.40
2022-08-30T21:36:31.317Z,11.60
2022-08-30T21:39:02.926Z,14.50
2022-08-30T21:41:37.121Z,13.80
2022-08-30T21:44:10.903Z,14.00
2022-08-30T21:46:43.358Z,13.40
2022-08-30T21:49:20.334Z,15.70
2022-08-30T21:51:53.528Z,16.00
2022-08-30T21:54:28.351Z,16.30
2022-08-30T21:57:05.183Z,15.20
2022-08-30T21:59:36.712Z,14.30
2022-08-30T22:02:09.174Z,15.00
2022-08-30T22:04:42.640Z,11.80
2022-08-30T22:07:14.426Z,11.70
2022-08-30T22:09:46.258Z,11.90
2022-08-30T22:12:18.057Z,12.40
2022-08-30T22:14:49.803Z,13.50
2022-08-30T22:17:21.650Z,10.80
2022-08-30T22:19:55.083Z,14.60
2022-08-30T22:22:26.909Z,11.60
2022-08-30T22:24:58.686Z,13.90
2022-08-30T22:27:31.366Z,15.40
2022-08-30T22:30:03.153Z,13.20
2022-08-30T22:32:34.965Z,11.70
2022-08-30T22:35:09.261Z,13.70
2022-08-30T22:37:41.032Z,13.00
2022-08-30T22:40:20.155Z,12.90
2022-08-30T22:42:52.096Z,17.00
2022-08-30T22:45:24.796Z,12.90
2022-08-30T22:47:56.909Z,13.10
2022-08-30T22:50:28.805Z,13.10
2022-08-30T22:53:00.644Z,12.70
2022-08-30T22:55:32.442Z,9.70
2022-08-30T22:58:04.440Z,10.80
2022-08-30T23:00:42.843Z,9.50
2022-08-30T23:03:27.284Z,13.30
2022-08-30T23:05:59.205Z,10.50
2022-08-30T23:08:33.704Z,13.00
2022-08-30T23:11:05.349Z,11.10
2022-08-30T23:13:38.486Z,11.40
2022-08-30T23:16:11.509Z,9.90
2022-08-30T23:18:44.933Z,11.60
2022-08-30T23:21:19.187Z,12.20
2022-08-30T23:24:09.909Z,14.10
2022-08-30T23:27:00.926Z,10.50
2022-08-30T23:29:53.347Z,12.90
2022-08-30T23:32:42.317Z,10.50
2022-08-30T23:35:32.477Z,15.30
2022-08-30T23:38:23.922Z,11.80
2022-08-30T23:41:12.992Z,17.00
2022-08-30T23:44:02.058Z,14.80
2022-08-30T23:46:51.236Z,11.70
2022-08-30T23:49:40.348Z,11.90
2022-08-30T23:52:29.555Z,11.80
2022-08-30T23:55:19.632Z,13.50
2022-08-30T23:58:12.190Z,12.00
